Tiempo atmosférico en la estación meteorológica de Bello, Teruel (1006 m.)



Fecha
DESCASC
Temp. máxima en grados centígrados (hora)
DESCASC
Temp. mínima en grados centígrados (hora)
DESCASC
Temp. media en grados centígrados
DESCASC
Racha de viento máxima en m/sg (hora)
DESCASC
Velocidad máxima media en intervalos de 10 minutos(hora)
DESCASC
Precipitaciones diarias en mm
DESCASC
Precipitaciones de 00:00 a 06:00 en mm
DESCASC
Precipitaciones de 06:00 a 12:00 en mm
DESCASC
Precipitaciones de 12:00 a 18:00 en mm
DESCASC
Precipitaciones de 18:00 a 24:00 en mm
DESCASC
20-10-2019 14.4 (00:00) 6 (23:59) 10.2 10.83 (12:50) 7.22 (12:50) 5 4.6 0.4 0 0
19-10-2019 19.4 (15:50) 10.5 (05:00) 14.9 20.83 (15:30) 12.22 (15:20) 0 0 0 0 0
18-10-2019 20.1 (16:00) 8.8 (00:00) 14.5 14.72 (13:30) 9.72 (12:30) 0 0 0 0 0
17-10-2019 18.3 (17:10) 2.3 (00:00) 10.3 9.72 (16:20) 6.11 (16:20) 0 0 0 0 0
16-10-2019 18.8 (16:20) 2.7 (00:00) 10.7 10.56 (15:10) 6.39 (21:20) 0 0 0 0 0
15-10-2019 14.7 (16:30) 4.1 (00:00) 9.4 10 (15:10) 5.83 (15:00) 0 0 0 0 0
14-10-2019 19.7 (14:10) 8.4 (00:00) 14.1 20 (11:30) 11.67 (10:10) 2.8 0 2.4 0.2 0.2
13-10-2019 25.8 (16:20) 11.9 (00:00) 18.8 13.33 (09:10) 8.61 (08:50) 0 0 0 0 0
12-10-2019 26.6 (14:50) 14.8 (00:00) 20.7 12.5 (15:10) 9.17 (15:40) 0 0 0 0 0
10-10-2019 22.5 (17:10) 9 (00:00) 15.8 8.06 (00:20) 5.28 (18:10) 0 0 0 0 0
09-10-2019 22 (14:50) 8.2 (00:00) 15.1 10.83 (21:10) 6.94 (20:30) 0 0 0 0 0
08-10-2019 28.2 (17:20) 7.2 (00:00) 17.7 8.33 (18:20) 3.89 (18:40) 0 0 0 0 0
07-10-2019 23.8 (17:00) 7.4 (00:00) 15.6 13.06 (13:10) 8.06 (12:50) 0 0 0 0 0
06-10-2019 22.8 (18:20) 4.7 (00:00) 13.7 9.17 (20:10) 6.11 (20:00) 0 0 0 0 0
05-10-2019 25.6 (17:00) 5.9 (07:50) 15.8 6.39 (16:00) 3.61 (16:20) 0 0 0 0 0
04-10-2019 26.8 (15:50) 4.3 (00:00) 15.5 9.44 (16:00) 4.72 (16:00) 0 0 0 0 0
03-10-2019 24.3 (16:40) 2.7 (00:00) 13.5 10 (11:40) 6.11 (11:40) 0 0 0 0 0
02-10-2019 19.1 (16:10) 7.8 (00:00) 13.5 10.56 (13:30) 6.39 (18:00) 0 0 0 0 0
01-10-2019 25.4 (13:30) 6.2 (00:00) 15.8 10.83 (16:30) 6.67 (16:20) 0 0 0 0 0
30-09-2019 29.2 (17:00) 6.2 (00:00) 17.7 7.78 (17:10) 4.72 (18:40) 0 0 0 0 0
29-09-2019 28.3 (16:00) 5.5 (00:00) 16.9 11.94 (13:40) 6.39 (12:50) 0 0 0 0 0
28-09-2019 28 (16:20) 5.4 (00:00) 16.7 10 (16:30) 5 (17:40) 0 0 0 0 0
27-09-2019 26.8 (18:10) 8.3 (00:00) 17.5 7.5 (18:20) 5.28 (18:20) 0 0 0 0 0
26-09-2019 27.2 (16:30) 6.9 (00:00) 17.1 7.78 (15:10) 4.44 (19:10) 0 0 0 0 0
25-09-2019 20.6 (17:00) 12.1 (00:00) 16.4 9.72 (15:30) 5.28 (15:30) 0 0 0 0 0
24-09-2019 25.7 (16:20) 10.2 (00:00) 18 11.67 (16:30) 6.94 (13:50) 0 0 0 0 0
23-09-2019 22.3 (16:50) 6 (00:00) 14.1 8.89 (16:00) 4.44 (18:00) 0 0 0 0 0
22-09-2019 21 (13:00) 12.1 (00:00) 16.6 14.44 (12:40) 8.89 (09:50) 3.2 0 0 3.2 0

Gráficas

Temp. máximas Temp. mínimas Temp. medias Precipitaciones Rachas de viento máximas Velocidades máximas media en intervalos de 10 minutos

Datos horarios

Fecha y hora oficial Temperatura (ºC) Velocidad del viento (km/h) Dirección del viento Racha (km/h) Dirección de racha Precipitación (mm) Presión (hPa) Tendencia (hPa) Humedad (%)
2019-10-21 23:00:00 5.7 5 Este 12 Nordeste 0 -- -- 82
2019-10-21 22:00:00 6.9 6 Nordeste 14 Nordeste 0 -- -- 76
2019-10-21 21:00:00 8.3 0 Calma 14 Nordeste 0 -- -- 74
2019-10-21 20:00:00 8.8 9 Nordeste 20 Este 0 -- -- 70
2019-10-21 19:00:00 10.1 13 Nordeste 22 Nordeste 0 -- -- 65
2019-10-21 18:00:00 11.3 11 Nordeste 19 Este 0 -- -- 58
2019-10-21 17:00:00 11.4 11 Nordeste 19 Este 0 -- -- 56
2019-10-21 16:00:00 11.3 3 Nordeste 13 Este 0 -- -- 55
2019-10-21 15:00:00 11.5 6 Sudeste 16 Este 0 -- -- 57
2019-10-21 14:00:00 10.4 6 Este 12 Sudeste 0 -- -- 62
2019-10-21 13:00:00 8.8 6 Sur 13 Sur 0 -- -- 69
2019-10-21 12:00:00 7.6 6 Nordeste 14 Norte 0 -- -- 77
2019-10-21 11:00:00 6.1 2 Noroeste 12 Norte 0 -- -- 85
2019-10-21 10:00:00 4.9 6 Noroeste 11 Noroeste 0 -- -- 93
2019-10-21 09:00:00 3.1 4 Oeste 8 Noroeste 0 -- -- 96
2019-10-21 08:00:00 1.7 4 Oeste 7 Oeste 0 -- -- 94
2019-10-21 07:00:00 2.7 4 Este 14 Sudeste 0 -- -- 93
2019-10-21 06:00:00 3.5 4 Oeste 14 Noroeste 0 -- -- 91
2019-10-21 05:00:00 4.6 8 Noroeste 13 Noroeste 0 -- -- 90
2019-10-21 04:00:00 5.7 6 Noroeste 10 Noroeste 0 -- -- 89
2019-10-21 03:00:00 5.6 4 Oeste 7 Sudoeste 0 -- -- 93
2019-10-21 02:00:00 4.3 6 Sudoeste 11 Este 0 -- -- 94
2019-10-21 01:00:00 4.5 4 Este 11 Oeste 0 -- -- 88
2019-10-21 00:00:00 6 7 Oeste 17 Noroeste 0 -- -- 86
2019-10-20 23:00:00 6.5 8 Oeste 14 Oeste 0 -- -- 86
2019-10-20 22:00:00 6.9 8 Oeste 18 Noroeste 0 -- -- 86
2019-10-20 21:00:00 7.1 9 Noroeste 24 Noroeste 0 -- -- 85
2019-10-20 20:00:00 8.5 17 Oeste 27 Oeste 0 -- -- 75
2019-10-20 19:00:00 9 15 Oeste 35 Oeste 0 -- -- 79
2019-10-20 18:00:00 11.2 18 Oeste 37 Oeste 0 -- -- 65
2019-10-20 17:00:00 10.9 19 Oeste 32 Oeste 0 -- -- 69
2019-10-20 16:00:00 11.1 16 Noroeste 28 Noroeste 0 -- -- 69
2019-10-20 15:00:00 11.9 13 Sudoeste 35 Oeste 0 -- -- 62
2019-10-20 14:00:00 11.3 21 Oeste 35 Oeste 0 -- -- 60
2019-10-20 13:00:00 10.8 23 Oeste 39 Oeste 0 -- -- 66
2019-10-20 12:00:00 10.1 18 Oeste 27 Oeste 0 -- -- 77
2019-10-20 11:00:00 9.4 15 Oeste 31 Oeste 0.4 -- -- 85
2019-10-20 10:00:00 9.5 9 Oeste 22 Oeste 0 -- -- 85
2019-10-20 09:00:00 9.6 13 Oeste 22 Oeste 0 -- -- 82
2019-10-20 08:00:00 9.8 14 Oeste 30 Oeste 0 -- -- 83
2019-10-20 07:00:00 11.2 8 Sudoeste 20 Sudoeste 0 -- -- 76
2019-10-20 06:00:00 11.6 8 Sudoeste 15 Sur 0 -- -- 83
2019-10-20 05:00:00 11.7 6 Sudoeste 24 Sur 0 -- -- 88
2019-10-20 04:00:00 11.7 16 Sur 27 Sur 0.4 -- -- 90
2019-10-20 03:00:00 11.6 15 Oeste 36 Sur 1 -- -- 90
2019-10-20 02:00:00 11.8 17 Sur 37 Sur 1.8 -- -- 85
2019-10-20 01:00:00 11.9 10 Sudoeste 26 Sudoeste 1.4 -- -- 87
2019-10-20 00:00:00 14.4 18 Sudoeste 31 Sudoeste 0 -- -- 68
2019-10-19 23:00:00 14.6 22 Sudoeste 39 Sudoeste 0 -- -- 62
2019-10-19 22:00:00 14.8 26 Sudoeste 35 Sudoeste 0 -- -- 63
2019-10-19 21:00:00 15.2 25 Sudoeste 38 Sudoeste 0 -- -- 64
2019-10-19 20:00:00 15.3 28 Sudoeste 49 Sudoeste 0 -- -- 64
2019-10-19 19:00:00 16 36 Sudoeste 68 Sudoeste 0 -- -- 63
2019-10-19 18:00:00 17.6 35 Sudoeste 55 Sudoeste 0 -- -- 53
2019-10-19 17:00:00 18.2 38 Oeste 68 Oeste 0 -- -- 50
2019-10-19 16:00:00 19.1 41 Oeste 75 Sudoeste 0 -- -- 42
2019-10-19 15:00:00 18.1 40 Sudoeste 70 Sudoeste 0 -- -- 45
2019-10-19 14:00:00 17.5 37 Oeste 53 Sudoeste 0 -- -- 48
2019-10-19 13:00:00 17.8 15 Oeste 40 Oeste 0 -- -- 48
2019-10-19 12:00:00 15.8 25 Oeste 43 Oeste 0 -- -- 55
2019-10-19 11:00:00 14.3 20 Oeste 30 Oeste 0 -- -- 59
2019-10-19 10:00:00 13.6 17 Oeste 28 Oeste 0 -- -- 64
2019-10-19 09:00:00 11.8 9 Sudoeste 13 Sudoeste 0 -- -- 74
2019-10-19 08:00:00 11.3 7 Oeste 31 Oeste 0 -- -- 73
2019-10-19 07:00:00 13 22 Oeste 38 Oeste 0 -- -- 69
2019-10-19 06:00:00 12.6 17 Oeste 26 Sudoeste 0 -- -- 75
2019-10-19 05:00:00 10.5 7 Sur 11 Sudoeste 0 -- -- 83
2019-10-19 04:00:00 10.8 3 Noroeste 13 Sudoeste 0 -- -- 81
2019-10-19 03:00:00 11.9 10 Sur 28 Sur 0 -- -- 80
2019-10-19 02:00:00 11 12 Sur 20 Sur 0 -- -- 79
2019-10-19 01:00:00 11.4 12 Sur 16 Sur 0 -- -- 78
2019-10-19 00:00:00 11.7 3 Sudoeste 13 Sudoeste 0 -- -- 75
2019-10-18 23:00:00 13.9 8 Sudoeste 24 Sudoeste 0 -- -- 69
2019-10-18 22:00:00 15.8 17 Sudoeste 24 Sudoeste 0 -- -- 65
2019-10-18 21:00:00 14.5 6 Sur 14 Oeste 0 -- -- 69
2019-10-18 20:00:00 16.2 10 Oeste 22 Oeste 0 -- -- 64
2019-10-18 19:00:00 17.1 14 Oeste 38 Oeste 0 -- -- 58
2019-10-18 18:00:00 18.1 21 Oeste 40 Oeste 0 -- -- 55
2019-10-18 17:00:00 18.7 28 Oeste 44 Oeste 0 -- -- 59
2019-10-18 16:00:00 20.1 23 Oeste 42 Oeste 0 -- -- 53
2019-10-18 15:00:00 18.5 28 Oeste 45 Oeste 0 -- -- 57
2019-10-18 14:00:00 18.3 32 Oeste 53 Oeste 0 -- -- 63
2019-10-18 13:00:00 18 33 Oeste 50 Oeste 0 -- -- 65
2019-10-18 12:00:00 17.6 31 Oeste 48 Oeste 0 -- -- 68
2019-10-18 11:00:00 16 28 Oeste 45 Oeste 0 -- -- 75
2019-10-18 10:00:00 15.1 17 Oeste 31 Oeste 0 -- -- 79
2019-10-18 09:00:00 14.2 15 Oeste 28 Oeste 0 -- -- 82
2019-10-18 08:00:00 13.7 9 Oeste 23 Oeste 0 -- -- 83
2019-10-18 07:00:00 13.7 17 Oeste 37 Oeste 0 -- -- 83
2019-10-18 06:00:00 14.4 17 Oeste 31 Oeste 0 -- -- 81
2019-10-18 05:00:00 13.8 8 Sudoeste 19 Sudoeste 0 -- -- 80
2019-10-18 04:00:00 12.2 5 Sur 19 Oeste 0 -- -- 82
2019-10-18 03:00:00 11.8 2 Sur 9 Sudeste 0 -- -- 86
2019-10-18 02:00:00 13 8 Sudoeste 20 Sudoeste 0 -- -- 83
2019-10-18 01:00:00 12.3 8 Sudoeste 17 Sudoeste 0 -- -- 83
2019-10-18 00:00:00 8.8 3 Sudeste 9 Sudoeste 0 -- -- 87
2019-10-17 23:00:00 11.9 6 Oeste 22 Oeste 0 -- -- 81
2019-10-17 22:00:00 11.1 6 Norte 15 Nordeste 0 -- -- 84
2019-10-17 21:00:00 11.5 3 Noroeste 25 Oeste 0 -- -- 80
2019-10-17 20:00:00 13.3 15 Oeste 25 Oeste 0 -- -- 73
2019-10-17 19:00:00 15.7 17 Oeste 30 Oeste 0 -- -- 65
2019-10-17 18:00:00 17.7 17 Oeste 32 Noroeste 0 -- -- 59
2019-10-17 17:00:00 18.2 15 Oeste 35 Oeste 0 -- -- 57
2019-10-17 16:00:00 16.7 18 Oeste 31 Oeste 0 -- -- 61
2019-10-17 15:00:00 17.2 15 Oeste 31 Oeste 0 -- -- 59
2019-10-17 14:00:00 14.2 15 Oeste 30 Oeste 0 -- -- 68
2019-10-17 13:00:00 14.4 16 Oeste 29 Oeste 0 -- -- 65
2019-10-17 12:00:00 14.1 8 Oeste 24 Oeste 0 -- -- 63
2019-10-17 11:00:00 12.3 14 Oeste 24 Oeste 0 -- -- 63
2019-10-17 10:00:00 7.8 5 Sur 7 Sudeste 0 -- -- 73
2019-10-17 09:00:00 3.8 6 Sudeste 9 Sudeste 0 -- -- 84
2019-10-17 08:00:00 4 6 Noroeste 12 Noroeste 0 -- -- 79
2019-10-17 07:00:00 3.7 5 Oeste 9 Oeste 0 -- -- 75
2019-10-17 06:00:00 4.2 3 Oeste 10 Oeste 0 -- -- 76
2019-10-17 05:00:00 4.7 0 Calma 9 Norte 0 -- -- 75
2019-10-17 04:00:00 5.4 2 Norte 8 Sudoeste 0 -- -- 71
2019-10-17 03:00:00 6.5 6 Sur 12 Sudeste 0 -- -- 68
2019-10-17 02:00:00 9.4 6 Sudeste 17 Noroeste 0 -- -- 58
2019-10-17 01:00:00 10.9 8 Noroeste 18 Oeste 0 -- -- 53
2019-10-17 00:00:00 9.4 3 Noroeste 24 Oeste 0 -- -- 57
2019-10-16 23:00:00 10.6 18 Oeste 28 Oeste 0 -- -- 57
2019-10-16 22:00:00 11.5 18 Oeste 33 Oeste 0 -- -- 53
2019-10-16 21:00:00 12.3 22 Oeste 34 Oeste 0 -- -- 51
2019-10-16 20:00:00 14.1 15 Oeste 22 Oeste 0 -- -- 44
2019-10-16 19:00:00 17.2 9 Oeste 25 Oeste 0 -- -- 35
2019-10-16 18:00:00 18.3 17 Oeste 32 Oeste 0 -- -- 32
2019-10-16 17:00:00 18.7 19 Oeste 32 Noroeste 0 -- -- 33
2019-10-16 16:00:00 18.6 15 Oeste 38 Oeste 0 -- -- 36
2019-10-16 15:00:00 18.1 18 Oeste 32 Oeste 0 -- -- 39
2019-10-16 14:00:00 17.2 13 Oeste 26 Oeste 0 -- -- 39
2019-10-16 13:00:00 14.7 12 Noroeste 27 Noroeste 0 -- -- 47
2019-10-16 12:00:00 13.1 14 Oeste 26 Oeste 0 -- -- 50
2019-10-16 11:00:00 10.5 6 Este 12 Nordeste 0 -- -- 61
2019-10-16 10:00:00 6.9 0 Calma 6 Norte 0 -- -- 74
2019-10-16 09:00:00 3.2 0 Calma 6 Nordeste 0 -- -- 86
2019-10-16 08:00:00 3.2 2 Noroeste 12 Oeste 0 -- -- 84
2019-10-16 07:00:00 3.7 8 Sur 9 Sudeste 0 -- -- 81
2019-10-16 06:00:00 6.5 4 Sudoeste 8 Sudoeste 0 -- -- 72
2019-10-16 05:00:00 6.4 6 Sudoeste 12 Sudoeste 0 -- -- 74
2019-10-16 04:00:00 4.9 3 Sudeste 5 Sudoeste 0 -- -- 81
2019-10-16 03:00:00 5.7 2 Nordeste 10 Nordeste 0 -- -- 79
2019-10-16 02:00:00 5.8 4 Este 25 Oeste 0 -- -- 75
2019-10-16 01:00:00 7.2 16 Oeste 23 Oeste 0 -- -- 71
2019-10-16 00:00:00 5.5 8 Noroeste 12 Noroeste 0 -- -- 76
2019-10-15 23:00:00 6.2 8 Oeste 14 Oeste 0 -- -- 72
2019-10-15 22:00:00 7.1 8 Oeste 11 Sudoeste 0 -- -- 69
2019-10-15 21:00:00 9 5 Oeste 13 Norte 0 -- -- 62
2019-10-15 20:00:00 10.9 4 Noroeste 19 Noroeste 0 -- -- 52
2019-10-15 19:00:00 13.6 12 Noroeste 32 Noroeste 0 -- -- 44
2019-10-15 18:00:00 14.6 14 Noroeste 27 Noroeste 0 -- -- 42
2019-10-15 17:00:00 14.4 16 Noroeste 31 Noroeste 0 -- -- 39
2019-10-15 16:00:00 14.3 19 Noroeste 36 Oeste 0 -- -- 39
2019-10-15 15:00:00 13.7 21 Noroeste 33 Oeste 0 -- -- 46
2019-10-15 14:00:00 12.1 14 Noroeste 29 Noroeste 0 -- -- 51
2019-10-15 13:00:00 10.4 17 Noroeste 33 Noroeste 0 -- -- 58
2019-10-15 12:00:00 9 20 Noroeste 35 Noroeste 0 -- -- 65
2019-10-15 11:00:00 7.8 17 Noroeste 27 Noroeste 0 -- -- 72
2019-10-15 10:00:00 5.8 12 Noroeste 22 Noroeste 0 -- -- 77
2019-10-15 09:00:00 5 6 Noroeste 24 Noroeste 0 -- -- 80
2019-10-15 08:00:00 4.2 9 Oeste 20 Oeste 0 -- -- 84
2019-10-15 07:00:00 5.3 13 Oeste 21 Oeste 0 -- -- 81
2019-10-15 06:00:00 5.2 14 Noroeste 23 Noroeste 0 -- -- 82
2019-10-15 05:00:00 4.2 13 Oeste 21 Oeste 0 -- -- 84
2019-10-15 04:00:00 5.5 10 Noroeste 22 Noroeste 0 -- -- 81
2019-10-15 03:00:00 6.4 15 Oeste 26 Oeste 0 -- -- 84
2019-10-15 02:00:00 7 13 Noroeste 26 Oeste 0 -- -- 85
2019-10-15 01:00:00 7.5 15 Oeste 24 Oeste 0 -- -- 85
2019-10-15 00:00:00 8.4 16 Oeste 32 Oeste 0 -- -- 83
2019-10-14 23:00:00 8.9 19 Oeste 38 Oeste 0.2 -- -- 82
2019-10-14 22:00:00 9.8 11 Noroeste 41 Oeste 0 -- -- 77
2019-10-14 21:00:00 14.1 22 Oeste 44 Oeste 0 -- -- 51
2019-10-14 20:00:00 14.8 9 Noroeste 31 Oeste 0 -- -- 60
2019-10-14 19:00:00 16.4 18 Oeste 38 Oeste 0 -- -- 60
2019-10-14 18:00:00 17.1 20 Oeste 45 Sudoeste 0 -- -- 62
2019-10-14 17:00:00 16.8 27 Oeste 50 Noroeste 0 -- -- 68
2019-10-14 16:00:00 18.3 27 Oeste 55 Noroeste 0 -- -- 58
2019-10-14 15:00:00 16.3 21 Oeste 51 Sudoeste 0 -- -- 72
2019-10-14 14:00:00 19.5 32 Sudoeste 55 Sur 0.2 -- -- 54
2019-10-14 13:00:00 16.8 39 Sur 53 Sur 0 -- -- 74
2019-10-14 12:00:00 13.8 25 Sur 72 Sudoeste 2 -- -- 80
2019-10-14 11:00:00 14.7 23 Sudoeste 64 Sudoeste 0.4 -- -- 74
2019-10-14 10:00:00 15.7 30 Sur 46 Sur 0 -- -- 75
2019-10-14 09:00:00 15.6 35 Sur 48 Sur 0 -- -- 74
2019-10-14 08:00:00 15.6 39 Sur 55 Sur 0 -- -- 75
2019-10-14 07:00:00 14.3 36 Sur 52 Sur 0 -- -- 86
2019-10-14 06:00:00 14.2 33 Sur 51 Sur 0 -- -- 87
2019-10-14 05:00:00 14.4 39 Sur 52 Sur 0 -- -- 87
2019-10-14 04:00:00 14.3 37 Sur 57 Sur 0 -- -- 88
2019-10-14 03:00:00 14.4 33 Sur 47 Sur 0 -- -- 86
2019-10-14 02:00:00 14.7 35 Sur 46 Sur 0 -- -- 85
2019-10-14 01:00:00 15.3 31 Sur 41 Sur 0 -- -- 82
2019-10-14 00:00:00 15.7 26 Sur 37 Sur 0 -- -- 79
2019-10-13 23:00:00 13.8 8 Sudoeste 18 Sudoeste 0 -- -- 51
2019-10-13 22:00:00 15.5 13 Sudoeste 18 Sudoeste 0 -- -- 45
2019-10-13 21:00:00 16.5 9 Sudoeste 17 Sudoeste 0 -- -- 38
2019-10-13 20:00:00 18.7 12 Sudoeste 25 Oeste 0 -- -- 34
2019-10-13 19:00:00 23.3 15 Oeste 32 Oeste 0 -- -- 29
2019-10-13 18:00:00 24.9 22 Oeste 45 Sudoeste 0 -- -- 24
2019-10-13 17:00:00 25.6 19 Oeste 36 Oeste 0 -- -- 27
2019-10-13 16:00:00 25.7 21 Oeste 41 Sudoeste 0 -- -- 26
2019-10-13 15:00:00 25.2 21 Oeste 44 Sudoeste 0 -- -- 32
2019-10-13 14:00:00 24.2 20 Sudoeste 36 Sudoeste 0 -- -- 34
2019-10-13 13:00:00 23.2 23 Sudoeste 37 Sudoeste 0 -- -- 42
2019-10-13 12:00:00 22.1 19 Sudoeste 31 Oeste 0 -- -- 50
2019-10-13 11:00:00 18.3 14 Sur 34 Sur 0 -- -- 69
2019-10-13 10:00:00 15.5 25 Sur 48 Sur 0 -- -- 80
2019-10-13 09:00:00 14 29 Sur 41 Sur 0 -- -- 87
2019-10-13 08:00:00 13.4 26 Sur 36 Sur 0 -- -- 89
2019-10-13 07:00:00 12.8 23 Sur 31 Sur 0 -- -- 90
2019-10-13 06:00:00 12.7 20 Sudeste 27 Sudeste 0 -- -- 89
2019-10-13 05:00:00 12.1 10 Sur 17 Sudoeste 0 -- -- 88
2019-10-13 04:00:00 12.6 14 Sudoeste 21 Sudoeste 0 -- -- 88
2019-10-13 03:00:00 13.3 16 Sur 20 Sur 0 -- -- 88
2019-10-13 02:00:00 13.1 10 Sudeste 14 Sudeste 0 -- -- 74
2019-10-13 01:00:00 15.4 5 Noroeste 19 Sudoeste 0 -- -- 70
2019-10-13 00:00:00 16 12 Noroeste 41 Sur 0 -- -- 82
2019-10-12 23:00:00 16.6 31 Sur 41 Sur 0 -- -- 79
2019-10-12 22:00:00 17.8 27 Sur 38 Sur 0 -- -- 73
2019-10-12 21:00:00 18.9 26 Sur 35 Sur 0 -- -- 64
2019-10-12 20:00:00 21 15 Sur 30 Sur 0 -- -- 47
2019-10-12 19:00:00 22.3 24 Sur 38 Sur 0 -- -- 42
2019-10-12 18:00:00 23.6 27 Sur 41 Sur 0 -- -- 35
2019-10-12 17:00:00 25.3 28 Sur 41 Sur 0 -- -- 35
2019-10-12 16:00:00 26 30 Sur 45 Sur 0 -- -- 32
2019-10-12 15:00:00 26.6 30 Sur 41 Sudeste 0 -- -- 30
2019-10-12 14:00:00 24.8 19 Sur 30 Sur 0 -- -- 35
2019-10-12 13:00:00 21.9 18 Sur 35 Sudoeste 0 -- -- 48
2019-10-12 12:00:00 19.9 25 Sur 32 Sur 0 -- -- 57
2019-10-12 11:00:00 17.5 25 Sur 37 Sur 0 -- -- 69
2019-10-12 10:00:00 16.1 28 Sur 38 Sur 0 -- -- 76
2019-10-12 09:00:00 15.2 26 Sur 37 Sur 0 -- -- 83
2019-10-12 08:00:00 14.9 19 Sur 31 Sur 0 -- -- 86
2019-10-12 07:00:00 15.1 22 Sur 43 Sur 0 -- -- 86
2019-10-12 06:00:00 15 16 Sur 35 Sudoeste 0 -- -- 87
2019-10-12 05:00:00 15.8 22 Sur 32 Sur 0 -- -- 83
2019-10-12 04:00:00 15.8 16 Sur 40 Sur 0 -- -- 84
2019-10-12 03:00:00 16.1 26 Sur 37 Sur 0 -- -- 84
2019-10-12 02:00:00 16.2 24 Sur 33 Sur 0 -- -- 84
2019-10-12 01:00:00 16.8 20 Sur 33 Sur 0 -- -- 80
2019-10-12 00:00:00 17.3 18 Sur 27 Sur 0 -- -- 77
2019-10-11 23:00:00 18.1 17 Sur 26 Sur 0 -- -- 72
2019-10-11 22:00:00 19 21 Sur 37 Sur 0 -- -- 66
2019-10-11 21:00:00 20.6 24 Sur 32 Sur 0 -- -- 54
2019-10-11 20:00:00 21.6 26 Sur 46 Sur 0 -- -- 48
2019-10-11 19:00:00 24.1 27 Sur 41 Sur 0 -- -- 42
2019-10-11 18:00:00 26 27 Sudeste 44 Sur 0 -- -- 40
2019-10-11 17:00:00 27 19 Sudeste 38 Sudeste 0 -- -- 37
2019-10-11 16:00:00 27 23 Sur 32 Sur 0 -- -- 39
2019-10-11 15:00:00 27.1 13 Sur 24 Sur 0 -- -- 41
2019-10-11 14:00:00 25.7 14 Sur 22 Sur 0 -- -- 47
2019-10-11 13:00:00 23.2 12 Sudeste 22 Sur 0 -- -- 54
2019-10-11 12:00:00 20.4 17 Sur 24 Sur 0 -- -- 64
2019-10-11 11:00:00 18.1 17 Sur 26 Sur 0 -- -- 72
2019-10-11 10:00:00 15.4 11 Sur 18 Sur 0 -- -- 87
2019-10-11 09:00:00 13.3 7 Sur 14 Sur 0 -- -- 95
2019-10-11 08:00:00 12.6 7 Sur 11 Sur 0 -- -- 94
2019-10-11 07:00:00 13 6 Sur 19 Sudoeste 0 -- -- 94
2019-10-11 06:00:00 12.9 8 Sur 18 Sur 0 -- -- 95
2019-10-11 05:00:00 12.8 13 Sur 30 Sur 0 -- -- 96
2019-10-11 04:00:00 12.9 19 Sur 29 Sur 0 -- -- 95
2019-10-11 03:00:00 13.5 8 Sudeste 16 Sur 0 -- -- 91
2019-10-11 02:00:00 13.6 12 Sur 24 Sur 0 -- -- 90
2019-10-11 01:00:00 14.2 10 Sur 17 Sur 0 -- -- 87
2019-10-11 00:00:00 15.4 3 Sur 22 Sur 0 -- -- 82
2019-10-10 23:00:00 15.5 12 Este 19 Sudeste 0 -- -- 82
2019-10-10 22:00:00 16.1 15 Sudeste 22 Sudeste 0 -- -- 79
2019-10-10 21:00:00 15.6 7 Este 16 Este 0 -- -- 60
2019-10-10 20:00:00 17.7 10 Este 20 Este 0 -- -- 54
2019-10-10 19:00:00 20.1 15 Nordeste 26 Este 0 -- -- 50
2019-10-10 18:00:00 21.4 17 Nordeste 24 Nordeste 0 -- -- 51
2019-10-10 17:00:00 22.4 9 Este 19 Este 0 -- -- 49
2019-10-10 16:00:00 21.5 9 Nordeste 19 Este 0 -- -- 51
2019-10-10 15:00:00 20.7 8 Este 19 Este 0 -- -- 52
2019-10-10 14:00:00 20 9 Este 18 Nordeste 0 -- -- 53
2019-10-10 13:00:00 18.1 8 Este 15 Sudeste 0 -- -- 61
2019-10-10 12:00:00 15.6 6 Sudeste 18 Nordeste 0 -- -- 59
2019-10-10 11:00:00 12.6 13 Este 21 Este 0 -- -- 64
2019-10-10 10:00:00 11.5 12 Nordeste 19 Nordeste 0 -- -- 67
2019-10-10 09:00:00 9.6 5 Este 13 Nordeste 0 -- -- 73
2019-10-10 08:00:00 9.7 10 Nordeste 20 Nordeste 0 -- -- 70
2019-10-10 07:00:00 10.2 12 Este 21 Nordeste 0 -- -- 69
2019-10-10 06:00:00 9.8 10 Este 15 Este 0 -- -- 71
2019-10-10 05:00:00 10.1 8 Este 13 Este 0 -- -- 71
2019-10-10 04:00:00 9.9 8 Este 19 Este 0 -- -- 73
2019-10-10 03:00:00 9.6 12 Este 22 Este 0 -- -- 72
2019-10-10 02:00:00 10.1 13 Este 26 Este 0 -- -- 68
2019-10-10 01:00:00 9.6 10 Este 29 Este 0 -- -- 75
2019-10-10 00:00:00 10.1 20 Este 33 Este 0 -- -- 71
2019-10-09 23:00:00 10.8 21 Este 36 Este 0 -- -- 69
2019-10-09 22:00:00 11.6 23 Este 39 Este 0 -- -- 69
2019-10-09 21:00:00 13.3 21 Este 37 Nordeste 0 -- -- 67
2019-10-09 20:00:00 14.8 22 Este 34 Este 0 -- -- 66
2019-10-09 19:00:00 17.5 21 Este 33 Nordeste 0 -- -- 61
2019-10-09 18:00:00 19.6 19 Nordeste 32 Este 0 -- -- 56
2019-10-09 17:00:00 20.3 24 Nordeste 33 Nordeste 0 -- -- 55
2019-10-09 16:00:00 21.6 18 Este 30 Nordeste 0 -- -- 53
2019-10-09 15:00:00 22 13 Este 28 Nordeste 0 -- -- 52
2019-10-09 14:00:00 21.1 13 Nordeste 23 Este 0 -- -- 55
2019-10-09 13:00:00 20.7 15 Este 23 Este 0 -- -- 55
2019-10-09 12:00:00 19.4 12 Norte 17 Norte 0 -- -- 54
2019-10-09 11:00:00 17.8 4 Sudoeste 10 Sudoeste 0 -- -- 56
2019-10-09 10:00:00 14.3 7 Sur 9 Sudeste 0 -- -- 67
2019-10-09 09:00:00 9 3 Oeste 9 Norte 0 -- -- 79
2019-10-09 08:00:00 8.6 3 Noroeste 8 Oeste 0 -- -- 81
2019-10-09 07:00:00 9.4 9 Oeste 11 Sudoeste 0 -- -- 78
2019-10-09 06:00:00 9.3 5 Oeste 15 Norte 0 -- -- 76
2019-10-09 05:00:00 10.1 3 Oeste 4 Noroeste 0 -- -- 75
2019-10-09 04:00:00 10.4 2 Norte 6 Noroeste 0 -- -- 69
2019-10-09 03:00:00 11.6 0 Calma 8 Oeste 0 -- -- 67
2019-10-09 02:00:00 13 0 Calma 5 Sudoeste 0 -- -- 61
2019-10-09 01:00:00 13.9 0 Calma 14 Oeste 0 -- -- 61
2019-10-09 00:00:00 15 9 Oeste 11 Oeste 0 -- -- 56
2019-10-08 23:00:00 16.4 3 Noroeste 9 Oeste 0 -- -- 53
2019-10-08 22:00:00 17.4 6 Sudoeste 9 Oeste 0 -- -- 48
2019-10-08 21:00:00 21.2 3 Sur 8 Norte 0 -- -- 42
2019-10-08 20:00:00 24 6 Norte 21 Noroeste 0 -- -- 37
2019-10-08 19:00:00 26.9 13 Noroeste 30 Noroeste 0 -- -- 34
2019-10-08 18:00:00 28.1 7 Noroeste 16 Oeste 0 -- -- 33
2019-10-08 17:00:00 27.6 8 Nordeste 16 Este 0 -- -- 35
2019-10-08 16:00:00 27.5 5 Oeste 15 Sudeste 0 -- -- 35
2019-10-08 15:00:00 26.1 12 Norte 22 Norte 0 -- -- 38
2019-10-08 14:00:00 25.1 5 Noroeste 12 Noroeste 0 -- -- 40
2019-10-08 13:00:00 23.7 6 Sur 12 Sudeste 0 -- -- 42
2019-10-08 12:00:00 21 5 Sudeste 12 Sudeste 0 -- -- 45
2019-10-08 11:00:00 16.4 2 Este 9 Nordeste 0 -- -- 57
2019-10-08 10:00:00 13.6 5 Nordeste 8 Norte 0 -- -- 64
2019-10-08 09:00:00 8.4 3 Oeste 9 Norte 0 -- -- 80
2019-10-08 08:00:00 7.3 8 Norte 14 Sudoeste 0 -- -- 81
2019-10-08 07:00:00 8 3 Sudoeste 11 Sudoeste 0 -- -- 80
2019-10-08 06:00:00 8.7 5 Oeste 10 Oeste 0 -- -- 76
2019-10-08 05:00:00 9.6 3 Oeste 10 Sudoeste 0 -- -- 72
2019-10-08 04:00:00 10.1 3 Sur 13 Noroeste 0 -- -- 73
2019-10-08 03:00:00 11.7 7 Norte 13 Oeste 0 -- -- 68
2019-10-08 02:00:00 12.5 7 Oeste 15 Oeste 0 -- -- 65
2019-10-08 01:00:00 13.6 9 Oeste 14 Oeste 0 -- -- 62
2019-10-08 00:00:00 12.6 8 Sudoeste 14 Sur 0 -- -- 64
2019-10-07 23:00:00 14 6 Sudoeste 14 Sudoeste 0 -- -- 61
2019-10-07 22:00:00 15.6 4 Norte 9 Nordeste 0 -- -- 56
2019-10-07 21:00:00 17.5 6 Norte 14 Norte 0 -- -- 57
2019-10-07 20:00:00 19.7 10 Norte 24 Nordeste 0 -- -- 53
2019-10-07 19:00:00 22.5 16 Nordeste 31 Norte 0 -- -- 46
2019-10-07 18:00:00 23.5 18 Norte 37 Norte 0 -- -- 40
2019-10-07 17:00:00 23.8 23 Norte 41 Norte 0 -- -- 40
2019-10-07 16:00:00 23.6 23 Norte 39 Norte 0 -- -- 37
2019-10-07 15:00:00 22.5 22 Norte 41 Norte 0 -- -- 30
2019-10-07 14:00:00 21.1 24 Norte 47 Norte 0 -- -- 31
2019-10-07 13:00:00 20 28 Norte 43 Norte 0 -- -- 28
2019-10-07 12:00:00 18.8 26 Norte 40 Norte 0 -- -- 29
2019-10-07 11:00:00 15.2 11 Norte 20 Norte 0 -- -- 56
2019-10-07 10:00:00 11.5 5 Norte 10 Norte 0 -- -- 70
2019-10-07 09:00:00 7.9 3 Nordeste 12 Noroeste 0 -- -- 89
2019-10-07 08:00:00 7.4 6 Noroeste 14 Noroeste 0 -- -- 91
2019-10-07 07:00:00 8.3 9 Noroeste 14 Oeste 0 -- -- 88
2019-10-07 06:00:00 8.7 6 Oeste 10 Oeste 0 -- -- 90
2019-10-07 05:00:00 8.4 2 Sudoeste 8 Oeste 0 -- -- 92
2019-10-07 04:00:00 8.6 4 Oeste 6 Sudoeste 0 -- -- 91
2019-10-07 03:00:00 8.2 0 Calma 6 Sudoeste 0 -- -- 90
2019-10-07 02:00:00 9 4 Sudoeste 10 Sudoeste 0 -- -- 90
2019-10-07 01:00:00 9.7 6 Sudoeste 11 Sudoeste 0 -- -- 89
2019-10-07 00:00:00 10.6 8 Sudeste 12 Este 0 -- -- 84
2019-10-06 23:00:00 12 10 Sudeste 14 Este 0 -- -- 81
2019-10-06 22:00:00 13 12 Nordeste 24 Este 0 -- -- 78
2019-10-06 21:00:00 14.5 18 Este 33 Nordeste 0 -- -- 72
2019-10-06 20:00:00 16.4 22 Nordeste 31 Nordeste 0 -- -- 65
2019-10-06 19:00:00 21.9 12 Norte 26 Norte 0 -- -- 37
2019-10-06 18:00:00 22.5 13 Norte 26 Norte 0 -- -- 39
2019-10-06 17:00:00 21.9 18 Norte 29 Norte 0 -- -- 43
2019-10-06 16:00:00 21.2 14 Norte 28 Noroeste 0 -- -- 46
2019-10-06 15:00:00 20.3 13 Norte 25 Norte 0 -- -- 47
2019-10-06 14:00:00 20.4 15 Norte 25 Norte 0 -- -- 48
2019-10-06 13:00:00 19.3 12 Norte 22 Norte 0 -- -- 50
2019-10-06 12:00:00 17.8 8 Noroeste 31 Noroeste 0 -- -- 55
2019-10-06 11:00:00 15.7 10 Norte 19 Noroeste 0 -- -- 59
2019-10-06 10:00:00 11.8 3 Nordeste 8 Oeste 0 -- -- 70
2019-10-06 09:00:00 6.9 3 Sudoeste 9 Oeste 0 -- -- 83
2019-10-06 08:00:00 5.5 4 Sudoeste 7 Norte 0 -- -- 80
2019-10-06 07:00:00 6.5 9 Sudoeste 12 Oeste 0 -- -- 82
2019-10-06 06:00:00 6.7 3 Sudoeste 7 Noroeste 0 -- -- 80
2019-10-06 05:00:00 8.5 4 Norte 6 Sur 0 -- -- 77
2019-10-06 04:00:00 7.8 2 Sudoeste 5 Oeste 0 -- -- 78
2019-10-06 03:00:00 8.9 3 Noroeste 6 Oeste 0 -- -- 74
2019-10-06 02:00:00 9.3 4 Oeste 5 Oeste 0 -- -- 73
2019-10-06 01:00:00 10.7 3 Noroeste 10 Oeste 0 -- -- 68
2019-10-06 00:00:00 11.5 4 Sur 6 Sudeste 0 -- -- 68
2019-10-05 23:00:00 12.9 4 Sudeste 6 Sudeste 0 -- -- 63
2019-10-05 22:00:00 14.8 4 Sudeste 10 Sudeste 0 -- -- 57
2019-10-05 21:00:00 17.8 2 Sudeste 9 Nordeste 0 -- -- 47
2019-10-05 20:00:00 20.9 5 Nordeste 14 Nordeste 0 -- -- 42
2019-10-05 19:00:00 24.5 7 Norte 15 Norte 0 -- -- 33
2019-10-05 18:00:00 25 12 Nordeste 21 Norte 0 -- -- 31
2019-10-05 17:00:00 25.6 7 Noroeste 20 Nordeste 0 -- -- 31
2019-10-05 16:00:00 25 9 Norte 23 Norte 0 -- -- 32
2019-10-05 15:00:00 24.2 10 Norte 21 Norte 0 -- -- 33
2019-10-05 14:00:00 23 9 Norte 20 Norte 0 -- -- 41
2019-10-05 13:00:00 21.2 6 Noroeste 15 Oeste 0 -- -- 48
2019-10-05 12:00:00 18.7 4 Norte 13 Nordeste 0 -- -- 59
2019-10-05 11:00:00 13.8 4 Este 8 Nordeste 0 -- -- 75
2019-10-05 10:00:00 9.5 3 Sudeste 5 Sudeste 0 -- -- 98
2019-10-05 09:00:00 7.1 2 Sudoeste 6 Oeste 0 -- -- 97
2019-10-05 08:00:00 5.9 4 Oeste 8 Nordeste 0 -- -- 95
2019-10-05 07:00:00 6.5 2 Sur 14 Sudoeste 0 -- -- 93
2019-10-05 06:00:00 7.6 10 Sudoeste 13 Sudoeste 0 -- -- 93
2019-10-05 05:00:00 9 6 Este 10 Este 0 -- -- 93
2019-10-05 04:00:00 10.2 6 Sudeste 13 Este 0 -- -- 90
2019-10-05 03:00:00 10.5 6 Este 10 Este 0 -- -- 86
2019-10-05 02:00:00 11.4 6 Este 11 Este 0 -- -- 86
2019-10-05 01:00:00 12.7 3 Sudeste 12 Este 0 -- -- 81
2019-10-05 00:00:00 14.1 10 Este 21 Este 0 -- -- 78
2019-10-04 23:00:00 15.5 12 Este 18 Nordeste 0 -- -- 70
2019-10-04 22:00:00 16.3 7 Sudeste 10 Nordeste 0 -- -- 53
2019-10-04 21:00:00 17.9 4 Sudeste 12 Sudeste 0 -- -- 43
2019-10-04 20:00:00 21.8 8 Noroeste 23 Noroeste 0 -- -- 36
2019-10-04 19:00:00 25.4 14 Noroeste 27 Noroeste 0 -- -- 28
2019-10-04 18:00:00 26 9 Norte 21 Nordeste 0 -- -- 30
2019-10-04 17:00:00 26.2 10 Nordeste 29 Norte 0 -- -- 31
2019-10-04 16:00:00 26.8 17 Oeste 34 Noroeste 0 -- -- 28
2019-10-04 15:00:00 25.9 6 Nordeste 16 Nordeste 0 -- -- 29
2019-10-04 14:00:00 24.1 8 Nordeste 14 Nordeste 0 -- -- 33
2019-10-04 13:00:00 22.5 6 Norte 10 Norte 0 -- -- 36
2019-10-04 12:00:00 18.9 2 Nordeste 6 Este 0 -- -- 44
2019-10-04 11:00:00 15.1 4 Este 7 Este 0 -- -- 52
2019-10-04 10:00:00 11.6 3 Nordeste 8 Norte 0 -- -- 64
2019-10-04 09:00:00 6 4 Sudoeste 7 Oeste 0 -- -- 80
2019-10-04 08:00:00 4.4 4 Oeste 5 Sudoeste 0 -- -- 80
2019-10-04 07:00:00 5.3 3 Sudeste 6 Oeste 0 -- -- 73
2019-10-04 06:00:00 5.9 3 Oeste 11 Oeste 0 -- -- 75
2019-10-04 05:00:00 5.8 6 Oeste 10 Sudoeste 0 -- -- 73
2019-10-04 04:00:00 6.3 0 Calma 13 Este 0 -- -- 74
2019-10-04 03:00:00 7.7 8 Sudoeste 12 Sudoeste 0 -- -- 68
2019-10-04 02:00:00 8.5 2 Nordeste 8 Oeste 0 -- -- 61
2019-10-04 01:00:00 10.3 5 Este 13 Oeste 0 -- -- 58
2019-10-04 00:00:00 10 2 Norte 20 Oeste 0 -- -- 57
2019-10-03 23:00:00 11.6 8 Oeste 11 Oeste 0 -- -- 52
2019-10-03 22:00:00 12.2 4 Sudoeste 10 Oeste 0 -- -- 52
2019-10-03 21:00:00 16.3 2 Nordeste 12 Noroeste 0 -- -- 41
2019-10-03 20:00:00 18.7 7 Norte 28 Norte 0 -- -- 37
2019-10-03 19:00:00 22.2 16 Norte 33 Norte 0 -- -- 29
2019-10-03 18:00:00 23.5 19 Norte 31 Norte 0 -- -- 25
2019-10-03 17:00:00 24.1 16 Norte 32 Nordeste 0 -- -- 26
2019-10-03 16:00:00 24 12 Norte 25 Nordeste 0 -- -- 25
2019-10-03 15:00:00 22.9 13 Norte 31 Norte 0 -- -- 28
2019-10-03 14:00:00 21.1 15 Norte 30 Norte 0 -- -- 31
2019-10-03 13:00:00 19.1 18 Norte 30 Noroeste 0 -- -- 40
2019-10-03 12:00:00 17 20 Noroeste 36 Norte 0 -- -- 49
2019-10-03 11:00:00 12.6 12 Norte 21 Norte 0 -- -- 69
2019-10-03 10:00:00 7.2 2 Este 6 Sudeste 0 -- -- 86
2019-10-03 09:00:00 3.4 4 Sudeste 5 Sur 0 -- -- 93
2019-10-03 08:00:00 3.8 0 Calma 4 Noroeste 0 -- -- 89
2019-10-03 07:00:00 4.8 3 Este 10 Noroeste 0 -- -- 86
2019-10-03 06:00:00 6.1 4 Noroeste 12 Noroeste 0 -- -- 84
2019-10-03 05:00:00 6.3 4 Oeste 10 Sudoeste 0 -- -- 88
2019-10-03 04:00:00 5.5 5 Sudoeste 9 Sudoeste 0 -- -- 91
2019-10-03 03:00:00 6.2 4 Oeste 10 Sudoeste 0 -- -- 84
2019-10-03 02:00:00 8.2 7 Noroeste 13 Sur 0 -- -- 87
2019-10-03 01:00:00 8.7 8 Noroeste 10 Noroeste 0 -- -- 83
2019-10-03 00:00:00 9.4 0 Calma 15 Norte 0 -- -- 77
2019-10-02 23:00:00 10.8 9 Noroeste 17 Noroeste 0 -- -- 73
2019-10-02 22:00:00 11.9 9 Norte 13 Noroeste 0 -- -- 68
2019-10-02 21:00:00 13.1 3 Noroeste 20 Nordeste 0 -- -- 64
2019-10-02 20:00:00 14.9 15 Nordeste 32 Nordeste 0 -- -- 57
2019-10-02 19:00:00 17.1 19 Nordeste 32 Norte 0 -- -- 50
2019-10-02 18:00:00 18.4 23 Nordeste 32 Norte 0 -- -- 45
2019-10-02 17:00:00 18.8 17 Nordeste 29 Norte 0 -- -- 45
2019-10-02 16:00:00 18.9 15 Norte 33 Norte 0 -- -- 44
2019-10-02 15:00:00 17.9 14 Norte 28 Norte 0 -- -- 48
2019-10-02 14:00:00 16.7 14 Norte 38 Norte 0 -- -- 50
2019-10-02 13:00:00 16.6 18 Norte 31 Noroeste 0 -- -- 52
2019-10-02 12:00:00 15.7 17 Norte 29 Noroeste 0 -- -- 52
2019-10-02 11:00:00 14.2 17 Noroeste 28 Norte 0 -- -- 61
2019-10-02 10:00:00 12.8 13 Noroeste 26 Noroeste 0 -- -- 71
2019-10-02 09:00:00 9.8 6 Oeste 10 Oeste 0 -- -- 80
2019-10-02 08:00:00 8.7 3 Este 16 Norte 0 -- -- 75
2019-10-02 07:00:00 10.1 10 Noroeste 18 Noroeste 0 -- -- 76
2019-10-02 06:00:00 10.1 5 Noroeste 18 Noroeste 0 -- -- 75
2019-10-02 05:00:00 11.7 12 Noroeste 21 Norte 0 -- -- 68
2019-10-02 04:00:00 12.4 7 Noroeste 12 Noroeste 0 -- -- 64
2019-10-02 03:00:00 11.6 4 Sudeste 17 Sudoeste 0 -- -- 68
2019-10-02 02:00:00 11.6 7 Sudoeste 13 Sudoeste 0 -- -- 71
2019-10-02 01:00:00 13.2 3 Sur 21 Noroeste 0 -- -- 65
2019-10-02 00:00:00 15.3 10 Norte 17 Noroeste 0 -- -- 61
2019-10-01 23:00:00 14.5 8 Sudoeste 17 Oeste 0 -- -- 62
2019-10-01 22:00:00 15 11 Oeste 13 Oeste 0 -- -- 60
2019-10-01 21:00:00 17.2 5 Oeste 23 Noroeste 0 -- -- 54
2019-10-01 20:00:00 19.8 17 Norte 36 Norte 0 -- -- 49
2019-10-01 19:00:00 22.3 20 Norte 33 Norte 0 -- -- 40
2019-10-01 18:00:00 23.6 17 Noroeste 36 Norte 0 -- -- 39
2019-10-01 17:00:00 23.6 23 Norte 39 Norte 0 -- -- 42
2019-10-01 16:00:00 24.1 16 Norte 26 Noroeste 0 -- -- 39
2019-10-01 15:00:00 24.7 16 Norte 37 Norte 0 -- -- 33
2019-10-01 14:00:00 24.4 19 Norte 34 Noroeste 0 -- -- 30
2019-10-01 13:00:00 24.6 17 Noroeste 31 Oeste 0 -- -- 26
2019-10-01 12:00:00 23.4 14 Noroeste 33 Oeste 0 -- -- 28
2019-10-01 11:00:00 20.3 6 Norte 12 Noroeste 0 -- -- 38
2019-10-01 10:00:00 13.4 4 Este 8 Nordeste 0 -- -- 55
2019-10-01 09:00:00 9.1 6 Oeste 10 Sudoeste 0 -- -- 71
2019-10-01 08:00:00 6.2 3 Sudoeste 5 Noroeste 0 -- -- 74
2019-10-01 07:00:00 7.8 3 Noroeste 10 Norte 0 -- -- 67
2019-10-01 06:00:00 8.1 2 Noroeste 4 Noroeste 0 -- -- 67
2019-10-01 05:00:00 9.3 3 Sur 10 Sudoeste 0 -- -- 64
2019-10-01 04:00:00 10.3 6 Oeste 7 Sudoeste 0 -- -- 60
2019-10-01 03:00:00 11.8 2 Sur 9 Sudoeste 0 -- -- 56
2019-10-01 02:00:00 13.9 4 Oeste 13 Sudeste 0 -- -- 50
2019-10-01 01:00:00 14.5 5 Sudoeste 10 Sudoeste 0 -- -- 48
2019-10-01 00:00:00 16.6 8 Sudoeste 10 Sudoeste 0 -- -- 42
2019-09-30 23:00:00 19.1 3 Nordeste 17 Noroeste 0 -- -- 36
2019-09-30 22:00:00 20.7 4 Nordeste 25 Oeste 0 -- -- 33
2019-09-30 21:00:00 19.3 3 Nordeste 13 Oeste 0 -- -- 32
2019-09-30 20:00:00 23.2 8 Oeste 22 Oeste 0 -- -- 27
2019-09-30 19:00:00 27.2 14 Noroeste 27 Oeste 0 -- -- 21
2019-09-30 18:00:00 28.5 15 Oeste 28 Noroeste 0 -- -- 19
2019-09-30 17:00:00 29.2 13 Oeste 24 Sudoeste 0 -- -- 18
2019-09-30 16:00:00 28.4 5 Nordeste 16 Sudoeste 0 -- -- 25
2019-09-30 15:00:00 27.4 4 Este 15 Noroeste 0 -- -- 25
2019-09-30 14:00:00 26.4 3 Sur 14 Este 0 -- -- 28
2019-09-30 13:00:00 24.7 5 Este 11 Nordeste 0 -- -- 33
2019-09-30 12:00:00 22 4 Este 7 Sudeste 0 -- -- 41
2019-09-30 11:00:00 17.6 3 Nordeste 8 Sudeste 0 -- -- 47
2019-09-30 10:00:00 13.3 2 Este 5 Este 0 -- -- 59
2019-09-30 09:00:00 8.5 3 Norte 6 Sudeste 0 -- -- 72
2019-09-30 08:00:00 6.4 3 Sur 7 Oeste 0 -- -- 75
2019-09-30 07:00:00 7 3 Sur 5 Sudoeste 0 -- -- 74
2019-09-30 06:00:00 7.5 2 Este 8 Oeste 0 -- -- 69
2019-09-30 05:00:00 7.8 3 Sudoeste 4 Sur 0 -- -- 71
2019-09-30 04:00:00 9.5 3 Oeste 8 Sudoeste 0 -- -- 64
2019-09-30 03:00:00 10.5 5 Sur 6 Sur 0 -- -- 61
2019-09-30 02:00:00 10.6 2 Nordeste 8 Nordeste 0 -- -- 58
2019-09-30 01:00:00 13.2 4 Noroeste 9 Oeste 0 -- -- 52
2019-09-30 00:00:00 14.1 3 Sudeste 9 Noroeste 0 -- -- 49
2019-09-29 23:00:00 17.7 8 Noroeste 19 Oeste 0 -- -- 40
2019-09-29 22:00:00 18.3 8 Norte 19 Oeste 0 -- -- 40
2019-09-29 21:00:00 20.3 11 Oeste 15 Oeste 0 -- -- 36
2019-09-29 20:00:00 23.2 8 Noroeste 22 Oeste 0 -- -- 31
2019-09-29 19:00:00 26.8 16 Oeste 31 Oeste 0 -- -- 27
2019-09-29 18:00:00 27.8 14 Noroeste 29 Oeste 0 -- -- 25
2019-09-29 17:00:00 28.3 17 Oeste 31 Oeste 0 -- -- 21
2019-09-29 16:00:00 28.3 18 Oeste 38 Noroeste 0 -- -- 22
2019-09-29 15:00:00 28 18 Noroeste 37 Oeste 0 -- -- 24
2019-09-29 14:00:00 27.3 18 Noroeste 43 Oeste 0 -- -- 24
2019-09-29 13:00:00 26.1 22 Oeste 38 Oeste 0 -- -- 27
2019-09-29 12:00:00 23.4 7 Oeste 15 Sudoeste 0 -- -- 39
2019-09-29 11:00:00 17.3 4 Sudeste 7 Nordeste 0 -- -- 64
2019-09-29 10:00:00 12.6 3 Este 7 Este 0 -- -- 72
2019-09-29 09:00:00 8.3 3 Norte 10 Sudoeste 0 -- -- 87
2019-09-29 08:00:00 5.5 3 Sur 5 Sur 0 -- -- 87
2019-09-29 07:00:00 6.4 6 Sudoeste 10 Oeste 0 -- -- 88
2019-09-29 06:00:00 7.4 4 Oeste 6 Oeste 0 -- -- 85
2019-09-29 05:00:00 7.3 3 Sudoeste 7 Sudoeste 0 -- -- 80
2019-09-29 04:00:00 7.7 0 Calma 6 Oeste 0 -- -- 77
2019-09-29 03:00:00 10.5 4 Oeste 7 Oeste 0 -- -- 65
2019-09-29 02:00:00 10 3 Noroeste 10 Sudeste 0 -- -- 69
2019-09-29 01:00:00 12.5 2 Sudoeste 10 Oeste 0 -- -- 58
2019-09-29 00:00:00 13.5 2 Noroeste 9 Sudoeste 0 -- -- 57
2019-09-28 23:00:00 14.3 2 Sudeste 18 Oeste 0 -- -- 66
2019-09-28 22:00:00 16.2 9 Oeste 12 Oeste 0 -- -- 61
2019-09-28 21:00:00 18.2 6 Sudoeste 14 Nordeste 0 -- -- 55
2019-09-28 20:00:00 21.6 8 Nordeste 22 Nordeste 0 -- -- 47
2019-09-28 19:00:00 25.4 13 Nordeste 24 Oeste 0 -- -- 36
2019-09-28 18:00:00 27.9 11 Oeste 28 Oeste 0 -- -- 22
2019-09-28 17:00:00 27.9 6 Sudoeste 36 Oeste 0 -- -- 23
2019-09-28 16:00:00 27.7 11 Noroeste 24 Noroeste 0 -- -- 24
2019-09-28 15:00:00 26.4 6 Este 15 Nordeste 0 -- -- 31
2019-09-28 14:00:00 25.4 5 Este 17 Sudeste 0 -- -- 34
2019-09-28 13:00:00 23.4 6 Este 14 Sur 0 -- -- 38
2019-09-28 12:00:00 20 4 Nordeste 9 Este 0 -- -- 43
2019-09-28 11:00:00 16.7 2 Este 5 Este 0 -- -- 49
2019-09-28 10:00:00 12.5 0 Calma 6 Sur 0 -- -- 64
2019-09-28 09:00:00 7.9 4 Sur 7 Sudoeste 0 -- -- 80
2019-09-28 08:00:00 5.7 6 Sudoeste 8 Sudoeste 0 -- -- 82
2019-09-28 07:00:00 6 3 Sudoeste 8 Norte 0 -- -- 80
2019-09-28 06:00:00 6.7 2 Sudeste 12 Sudoeste 0 -- -- 75
2019-09-28 05:00:00 7.7 10 Sudoeste 13 Sudoeste 0 -- -- 74
2019-09-28 04:00:00 8.2 3 Oeste 5 Nordeste 0 -- -- 71
2019-09-28 03:00:00 9.5 2 Sudoeste 3 Sudoeste 0 -- -- 67
2019-09-28 02:00:00 10.5 3 Noroeste 9 Oeste 0 -- -- 65
2019-09-28 01:00:00 13.4 9 Oeste 12 Oeste 0 -- -- 56
2019-09-28 00:00:00 13.5 2 Nordeste 10 Oeste 0 -- -- 57
2019-09-27 23:00:00 15.4 9 Oeste 12 Sudoeste 0 -- -- 51
2019-09-27 22:00:00 18.1 8 Noroeste 16 Noroeste 0 -- -- 47
2019-09-27 21:00:00 19.8 10 Norte 15 Norte 0 -- -- 45
2019-09-27 20:00:00 22.8 8 Noroeste 14 Norte 0 -- -- 39
2019-09-27 19:00:00 26.1 9 Noroeste 27 Noroeste 0 -- -- 31
2019-09-27 18:00:00 26.7 6 Norte 16 Norte 0 -- -- 28
2019-09-27 17:00:00 26.1 10 Nordeste 21 Norte 0 -- -- 33
2019-09-27 16:00:00 25.5 9 Norte 21 Nordeste 0 -- -- 35
2019-09-27 15:00:00 25.1 13 Norte 23 Nordeste 0 -- -- 34
2019-09-27 14:00:00 24.2 10 Nordeste 23 Norte 0 -- -- 35
2019-09-27 13:00:00 23.2 9 Noroeste 18 Norte 0 -- -- 35
2019-09-27 12:00:00 21.4 9 Norte 13 Norte 0 -- -- 35
2019-09-27 11:00:00 18.7 5 Norte 9 Nordeste 0 -- -- 55
2019-09-27 10:00:00 15.4 4 Sudeste 5 Sudeste 0 -- -- 67
2019-09-27 09:00:00 10.7 0 Calma 5 Sudoeste 0 -- -- 87
2019-09-27 08:00:00 8.3 2 Oeste 5 Sur 0 -- -- 87
2019-09-27 07:00:00 9.6 3 Noroeste 7 Norte 0 -- -- 83
2019-09-27 06:00:00 9.8 2 Noroeste 4 Sudoeste 0 -- -- 81
2019-09-27 05:00:00 10.8 2 Sudoeste 8 Sudoeste 0 -- -- 78
2019-09-27 04:00:00 11.6 5 Sudoeste 10 Noroeste 0 -- -- 75
2019-09-27 03:00:00 12.1 2 Sudoeste 6 Nordeste 0 -- -- 73
2019-09-27 02:00:00 13.8 6 Sudoeste 15 Sur 0 -- -- 68
2019-09-27 01:00:00 14.8 0 Calma 9 Sudoeste 0 -- -- 63
2019-09-27 00:00:00 15.3 0 Calma 7 Oeste 0 -- -- 62
2019-09-26 23:00:00 16.7 0 Calma 13 Oeste 0 -- -- 56
2019-09-26 22:00:00 17.4 4 Oeste 10 Oeste 0 -- -- 54
2019-09-26 21:00:00 19.3 5 Oeste 14 Noroeste 0 -- -- 47
2019-09-26 20:00:00 23.1 10 Noroeste 24 Noroeste 0 -- -- 39
2019-09-26 19:00:00 25.6 14 Noroeste 25 Noroeste 0 -- -- 35
2019-09-26 18:00:00 26.9 14 Noroeste 26 Oeste 0 -- -- 33
2019-09-26 17:00:00 27.2 8 Noroeste 25 Oeste 0 -- -- 32
2019-09-26 16:00:00 26.8 11 Oeste 28 Oeste 0 -- -- 33
2019-09-26 15:00:00 26 9 Sudoeste 22 Sudoeste 0 -- -- 35
2019-09-26 14:00:00 24.4 10 Oeste 21 Noroeste 0 -- -- 37
2019-09-26 13:00:00 22.3 6 Este 14 Sudeste 0 -- -- 44
2019-09-26 12:00:00 20 3 Este 11 Este 0 -- -- 49
2019-09-26 11:00:00 16.8 3 Este 6 Nordeste 0 -- -- 61
2019-09-26 10:00:00 12.7 3 Nordeste 5 Nordeste 0 -- -- 76
2019-09-26 09:00:00 8.8 3 Nordeste 7 Oeste 0 -- -- 87
2019-09-26 08:00:00 6.9 6 Sudoeste 8 Sudoeste 0 -- -- 90
2019-09-26 07:00:00 7.6 3 Oeste 5 Oeste 0 -- -- 87
2019-09-26 06:00:00 8.1 2 Norte 5 Oeste 0 -- -- 86
2019-09-26 05:00:00 8.9 3 Oeste 13 Sudoeste 0 -- -- 83
2019-09-26 04:00:00 9.2 7 Sudoeste 9 Sur 0 -- -- 84
2019-09-26 03:00:00 10 2 Noroeste 6 Noroeste 0 -- -- 80
2019-09-26 02:00:00 11.3 6 Oeste 9 Oeste 0 -- -- 77
2019-09-26 01:00:00 11.8 7 Sur 12 Oeste 0 -- -- 75
2019-09-26 00:00:00 12.1 5 Oeste 10 Sudoeste 0 -- -- 71
2019-09-25 23:00:00 13 0 Calma 7 Norte 0 -- -- 67
2019-09-25 22:00:00 15.4 7 Noroeste 16 Norte 0 -- -- 58
2019-09-25 21:00:00 16.1 9 Noroeste 16 Norte 0 -- -- 55
2019-09-25 20:00:00 17.6 12 Norte 22 Norte 0 -- -- 50
2019-09-25 19:00:00 18.8 13 Norte 28 Norte 0 -- -- 47
2019-09-25 18:00:00 20.1 15 Norte 27 Norte 0 -- -- 42
2019-09-25 17:00:00 20.6 18 Norte 28 Norte 0 -- -- 42
2019-09-25 16:00:00 20.3 15 Norte 35 Norte 0 -- -- 43
2019-09-25 15:00:00 19.8 15 Norte 27 Noroeste 0 -- -- 44
2019-09-25 14:00:00 18.9 14 Noroeste 30 Norte 0 -- -- 45
2019-09-25 13:00:00 17.8 16 Norte 31 Norte 0 -- -- 47
2019-09-25 12:00:00 16.7 14 Noroeste 26 Norte 0 -- -- 53
2019-09-25 11:00:00 15.4 16 Norte 27 Norte 0 -- -- 57
2019-09-25 10:00:00 13.9 14 Noroeste 22 Noroeste 0 -- -- 66
2019-09-25 09:00:00 12.8 9 Noroeste 15 Noroeste 0 -- -- 75
2019-09-25 08:00:00 12.5 5 Noroeste 13 Norte 0 -- -- 80
2019-09-25 07:00:00 13.2 8 Noroeste 18 Noroeste 0 -- -- 77
2019-09-25 06:00:00 14.2 12 Noroeste 20 Norte 0 -- -- 77
2019-09-25 05:00:00 15.3 12 Norte 21 Norte 0 -- -- 75
2019-09-25 04:00:00 16.1 9 Norte 23 Noroeste 0 -- -- 74
2019-09-25 03:00:00 16.6 15 Norte 24 Noroeste 0 -- -- 75
2019-09-25 02:00:00 16.5 0 Calma 10 Noroeste 0 -- -- 80
2019-09-25 01:00:00 16.5 5 Noroeste 8 Noroeste 0 -- -- 79
2019-09-25 00:00:00 16.9 4 Noroeste 9 Noroeste 0 -- -- 77
2019-09-24 23:00:00 17 3 Norte 8 Norte 0 -- -- 76
2019-09-24 22:00:00 17.8 7 Norte 15 Norte 0 -- -- 71
2019-09-24 21:00:00 19.6 9 Norte 19 Norte 0 -- -- 65
2019-09-24 20:00:00 22.4 11 Oeste 28 Oeste 0 -- -- 48
2019-09-24 19:00:00 24.5 17 Noroeste 32 Oeste 0 -- -- 42
2019-09-24 18:00:00 25.4 14 Oeste 33 Oeste 0 -- -- 40
2019-09-24 17:00:00 25.2 19 Oeste 42 Oeste 0 -- -- 39
2019-09-24 16:00:00 25.3 22 Oeste 37 Oeste 0 -- -- 38
2019-09-24 15:00:00 25.3 19 Noroeste 37 Oeste 0 -- -- 36
2019-09-24 14:00:00 24.5 24 Noroeste 39 Noroeste 0 -- -- 34
2019-09-24 13:00:00 23.6 22 Oeste 37 Oeste 0 -- -- 35
2019-09-24 12:00:00 21.6 18 Oeste 38 Oeste 0 -- -- 42
2019-09-24 11:00:00 19.6 23 Oeste 36 Noroeste 0 -- -- 48
2019-09-24 10:00:00 15.5 2 Nordeste 6 Este 0 -- -- 66
2019-09-24 09:00:00 11.3 3 Sudeste 8 Este 0 -- -- 80
2019-09-24 08:00:00 10.7 4 Nordeste 9 Sudoeste 0 -- -- 76
2019-09-24 07:00:00 11.2 0 Calma 8 Sur 0 -- -- 75
2019-09-24 06:00:00 11.5 4 Sudeste 10 Nordeste 0 -- -- 74
2019-09-24 05:00:00 12.2 4 Sur 11 Sudoeste 0 -- -- 72
2019-09-24 04:00:00 12.9 6 Sur 15 Sudoeste 0 -- -- 72
2019-09-24 03:00:00 13.4 5 Este 20 Norte 0 -- -- 71
2019-09-24 02:00:00 14.2 3 Oeste 16 Noroeste 0 -- -- 68
2019-09-24 01:00:00 14.6 9 Oeste 22 Noroeste 0 -- -- 67
2019-09-24 00:00:00 14.3 5 Norte 22 Oeste 0 -- -- 69
2019-09-23 23:00:00 15.3 13 Oeste 23 Oeste 0 -- -- 64
2019-09-23 22:00:00 15.8 11 Oeste 20 Oeste 0 -- -- 63
2019-09-23 21:00:00 16.8 6 Oeste 12 Noroeste 0 -- -- 59
2019-09-23 20:00:00 19.2 9 Noroeste 20 Noroeste 0 -- -- 50
2019-09-23 19:00:00 21.1 14 Noroeste 23 Noroeste 0 -- -- 42
2019-09-23 18:00:00 21.9 16 Noroeste 25 Noroeste 0 -- -- 39
2019-09-23 17:00:00 22.2 10 Oeste 26 Oeste 0 -- -- 38
2019-09-23 16:00:00 21.8 12 Noroeste 32 Oeste 0 -- -- 40
2019-09-23 15:00:00 20.7 14 Noroeste 23 Oeste 0 -- -- 43
2019-09-23 14:00:00 19 9 Noroeste 19 Noroeste 0 -- -- 48
2019-09-23 13:00:00 18 5 Sudoeste 17 Sur 0 -- -- 53
2019-09-23 12:00:00 16.6 4 Este 8 Este 0 -- -- 61
2019-09-23 11:00:00 14.3 2 Sudeste 9 Oeste 0 -- -- 70
2019-09-23 10:00:00 11 2 Nordeste 4 Nordeste 0 -- -- 88
2019-09-23 09:00:00 7.4 0 Calma 9 Sudoeste 0 -- -- 94
2019-09-23 08:00:00 6.3 6 Oeste 7 Sudoeste 0 -- -- 94
2019-09-23 07:00:00 6.5 0 Calma 7 Sudoeste 0 -- -- 93
2019-09-23 06:00:00 7 4 Oeste 8 Sudoeste 0 -- -- 91
2019-09-23 05:00:00 7.6 3 Oeste 7 Oeste 0 -- -- 91
2019-09-23 04:00:00 8.8 0 Calma 10 Oeste 0 -- -- 88
2019-09-23 03:00:00 9 5 Oeste 9 Sudoeste 0 -- -- 89
2019-09-23 02:00:00 10.3 6 Oeste 10 Oeste 0 -- -- 84
2019-09-23 01:00:00 11.7 7 Oeste 10 Oeste 0 -- -- 80
2019-09-23 00:00:00 12.5 7 Oeste 13 Oeste 0 -- -- 80
2019-09-22 23:00:00 12.2 8 Oeste 12 Oeste 0 -- -- 78
2019-09-22 22:00:00 12.3 9 Sudoeste 10 Oeste 0 -- -- 76
2019-09-22 21:00:00 14.4 7 Noroeste 15 Norte 0 -- -- 68
2019-09-22 20:00:00 16.1 10 Norte 23 Norte 0 -- -- 62
2019-09-22 19:00:00 18.2 11 Norte 22 Noroeste 0 -- -- 59
2019-09-22 18:00:00 17.9 10 Norte 25 Noroeste 0 -- -- 65
2019-09-22 17:00:00 17.4 16 Norte 23 Norte 0 -- -- 71
2019-09-22 16:00:00 16.3 10 Norte 25 Norte 0 -- -- 79
2019-09-22 15:00:00 13.9 12 Norte 30 Noroeste 3 -- -- 93
2019-09-22 14:00:00 15.4 19 Noroeste 33 Norte 0.2 -- -- 84
2019-09-22 13:00:00 21 25 Oeste 52 Oeste 0 -- -- 49
2019-09-22 12:00:00 19.6 27 Oeste 46 Oeste 0 -- -- 60
2019-09-22 11:00:00 18.5 25 Oeste 41 Oeste 0 -- -- 68
2019-09-22 10:00:00 18.3 28 Oeste 45 Sudoeste 0 -- -- 66
2019-09-22 09:00:00 15.9 13 Oeste 26 Sudoeste 0 -- -- 79
2019-09-22 08:00:00 14.9 4 Sudoeste 30 Sudoeste 0 -- -- 80
2019-09-22 07:00:00 15.2 14 Sudoeste 33 Sudoeste 0 -- -- 79
2019-09-22 06:00:00 16 15 Oeste 25 Sudoeste 0 -- -- 76
2019-09-22 05:00:00 15.6 3 Oeste 9 Este 0 -- -- 78
2019-09-22 04:00:00 15.2 2 Sudeste 18 Sudoeste 0 -- -- 81
2019-09-22 03:00:00 16.8 15 Sudoeste 25 Oeste 0 -- -- 74
2019-09-22 02:00:00 15.8 15 Sur 19 Sur 0 -- -- 81
2019-09-22 01:00:00 16.6 12 Sur 26 Sudoeste 0 -- -- 75
2019-09-22 00:00:00 17.4 13 Sudoeste 21 Sudoeste 0 -- -- 72